TimeEST,TemperatureF,Dew PointF,Humidity,Sea Level PressureIn,VisibilityMPH,Wind Direction,Wind SpeedMPH,Gust SpeedMPH,PrecipitationIn,Events,Conditions,WindDirDegrees,DateUTC
12:53 AM,55.0,51.1,86,30.30,10.0,Calm,Calm,-,N/A,,Clear,0,2013-01-25 05:53:00
1:53 AM,53.1,50.0,89,30.29,8.0,Calm,Calm,-,N/A,,Clear,0,2013-01-25 06:53:00
2:53 AM,52.0,50.0,93,30.28,6.0,West,3.5,-,N/A,,Mostly Cloudy,260,2013-01-25 07:53:00
3:53 AM,53.1,51.1,93,30.27,6.0,Calm,Calm,-,N/A,,Mostly Cloudy,0,2013-01-25 08:53:00
4:53 AM,50.0,48.9,96,30.27,4.0,WNW,6.9,-,N/A,,Clear,300,2013-01-25 09:53:00
5:49 AM,50.0,48.2,94,30.28,2.5,NW,4.6,-,N/A,,Clear,310,2013-01-25 10:49:00
5:53 AM,50.0,48.9,96,30.29,2.5,NW,4.6,-,N/A,,Clear,310,2013-01-25 10:53:00
6:05 AM,50.0,48.2,94,30.29,3.0,NW,4.6,-,N/A,,Clear,320,2013-01-25 11:05:00
6:24 AM,48.2,48.2,100,30.30,2.5,WNW,3.5,-,N/A,,Clear,300,2013-01-25 11:24:00
6:53 AM,50.0,48.9,96,30.30,2.5,West,4.6,-,N/A,,Clear,280,2013-01-25 11:53:00
7:53 AM,50.0,48.9,96,30.31,2.5,West,3.5,-,N/A,,Clear,280,2013-01-25 12:53:00
8:11 AM,51.8,50.0,94,30.31,3.0,Calm,Calm,-,N/A,,Clear,0,2013-01-25 13:11:00
8:53 AM,55.0,52.0,89,30.32,5.0,NW,3.5,-,N/A,,Clear,320,2013-01-25 13:53:00
9:53 AM,62.1,53.1,72,30.32,10.0,North,3.5,-,N/A,,Clear,10,2013-01-25 14:53:00
10:53 AM,68.0,52.0,56,30.32,10.0,Calm,Calm,-,N/A,,Clear,0,2013-01-25 15:53:00
11:53 AM,71.1,48.9,45,30.30,10.0,NE,3.5,-,N/A,,Overcast,40,2013-01-25 16:53:00
12:53 PM,72.0,42.1,34,30.26,10.0,Variable,5.8,-,N/A,,Clear,0,2013-01-25 17:53:00
1:53 PM,71.1,44.1,38,30.24,10.0,East,3.5,-,N/A,,Clear,80,2013-01-25 18:53:00
2:53 PM,73.9,46.0,37,30.21,10.0,ENE,4.6,-,N/A,,Partly Cloudy,60,2013-01-25 19:53:00
3:53 PM,73.0,46.0,38,30.19,10.0,Calm,Calm,-,N/A,,Clear,0,2013-01-25 20:53:00
4:53 PM,73.0,46.0,38,30.19,10.0,Calm,Calm,-,N/A,,Clear,0,2013-01-25 21:53:00
5:53 PM,71.1,46.9,42,30.20,10.0,SSW,3.5,-,N/A,,Clear,200,2013-01-25 22:53:00
6:53 PM,66.9,48.9,52,30.20,10.0,SSE,3.5,-,N/A,,Clear,160,2013-01-25 23:53:00
7:53 PM,60.1,48.9,67,30.22,10.0,East,5.8,-,N/A,,Clear,80,2013-01-26 00:53:00
8:53 PM,63.0,48.9,60,30.22,10.0,Calm,Calm,-,N/A,,Clear,0,2013-01-26 01:53:00
9:53 PM,57.9,46.9,67,30.22,10.0,Calm,Calm,-,N/A,,Clear,0,2013-01-26 02:53:00
10:53 PM,55.9,46.0,69,30.24,10.0,Calm,Calm,-,N/A,,Clear,0,2013-01-26 03:53:00
11:53 PM,53.1,45.0,74,30.25,10.0,Calm,Calm,-,N/A,,Clear,0,2013-01-26 04:53:00